createdAt,value
2022-07-29T03:50:13.757Z,22.39
2022-07-29T03:53:16.962Z,22.34
2022-07-29T03:56:23.189Z,22.31
2022-07-29T03:59:27.892Z,22.34
2022-07-29T04:02:31.234Z,22.26
2022-07-29T04:05:34.717Z,22.36
2022-07-29T04:08:37.365Z,22.54
2022-07-29T04:12:02.012Z,22.54
2022-07-29T04:15:05.327Z,22.60
2022-07-29T04:18:08.386Z,22.78
2022-07-29T04:21:11.496Z,22.72
2022-07-29T04:24:14.792Z,22.82
2022-07-29T04:27:17.779Z,22.94
2022-07-29T04:30:20.857Z,23.02
2022-07-29T04:33:25.066Z,23.15
2022-07-29T05:18:11.487Z,25.81
2022-07-29T05:21:14.219Z,26.20
2022-07-29T05:24:17.737Z,26.10
2022-07-29T05:27:20.685Z,26.43
2022-07-29T05:30:23.835Z,26.59
2022-07-29T05:33:34.943Z,26.91
2022-07-29T05:36:39.929Z,26.97
2022-07-29T05:39:47.487Z,26.90
2022-07-29T05:42:52.276Z,26.59
2022-07-29T05:45:55.329Z,26.11
2022-07-29T05:48:58.202Z,26.77
2022-07-29T05:52:00.885Z,27.04
2022-07-29T05:55:06.550Z,26.99
2022-07-29T05:58:09.368Z,27.26
2022-07-29T06:01:12.321Z,27.95
2022-07-29T06:04:15.547Z,27.33
2022-07-29T06:07:18.627Z,27.23
2022-07-29T06:10:23.966Z,27.66
2022-07-29T06:13:30.425Z,28.48
2022-07-29T06:16:33.429Z,28.93
2022-07-29T06:19:37.902Z,29.51
2022-07-29T06:23:15.433Z,29.90
2022-07-29T06:26:18.270Z,29.74
2022-07-29T06:29:20.816Z,30.12
2022-07-29T06:32:47.422Z,29.54
2022-07-29T06:36:00.840Z,30.23
2022-07-29T06:39:08.167Z,30.62
2022-07-29T06:42:11.195Z,30.64
2022-07-29T06:45:14.302Z,30.62
2022-07-29T06:48:17.002Z,30.68
2022-07-29T06:51:21.833Z,30.34
2022-07-29T06:54:26.048Z,30.49
2022-07-29T06:57:28.958Z,30.62
2022-07-29T07:00:31.659Z,31.44
2022-07-29T07:03:34.666Z,30.92
2022-07-29T07:06:38.179Z,30.45
2022-07-29T07:09:41.166Z,30.75
2022-07-29T07:12:43.847Z,30.58
2022-07-29T07:15:49.618Z,31.73
2022-07-29T07:19:22.994Z,32.43
2022-07-29T07:22:27.919Z,31.28
2022-07-29T07:25:30.767Z,30.09
2022-07-29T07:28:34.668Z,30.70
2022-07-29T07:31:39.362Z,30.78
2022-07-29T07:34:42.346Z,30.91
2022-07-29T07:37:45.402Z,31.08
2022-07-29T07:40:48.467Z,32.18
2022-07-29T07:43:51.666Z,31.62
2022-07-29T07:46:55.360Z,32.65
2022-07-29T07:49:58.444Z,31.71
2022-07-29T07:53:03.113Z,32.10
2022-07-29T07:56:10.824Z,32.92
2022-07-29T07:59:14.705Z,32.41
2022-07-29T08:02:18.467Z,32.50
2022-07-29T08:05:21.452Z,33.30
2022-07-29T08:08:24.160Z,33.38
2022-07-29T08:11:27.256Z,33.21
2022-07-29T08:14:32.454Z,34.37
2022-07-29T08:17:35.643Z,34.62
2022-07-29T08:20:39.883Z,35.32
2022-07-29T08:23:55.872Z,35.08
2022-07-29T08:27:01.393Z,34.37
2022-07-29T08:30:04.976Z,34.21
2022-07-29T08:33:08.740Z,34.73
2022-07-29T08:36:11.762Z,34.74
2022-07-29T08:39:14.369Z,34.44
2022-07-29T08:42:17.972Z,35.39
2022-07-29T08:45:24.558Z,36.37
2022-07-29T08:48:27.615Z,34.79
2022-07-29T08:51:48.623Z,34.59
2022-07-29T08:54:54.333Z,35.15
2022-07-29T08:57:59.681Z,36.02
2022-07-29T09:01:34.976Z,35.41
2022-07-29T09:04:41.905Z,35.61
2022-07-29T09:07:48.491Z,34.08
2022-07-29T09:10:52.351Z,34.01
2022-07-29T09:13:55.355Z,35.42
2022-07-29T09:16:58.339Z,37.33
2022-07-29T09:20:13.659Z,37.16
2022-07-29T09:23:23.455Z,37.14
2022-07-29T09:26:32.284Z,37.48
2022-07-29T09:29:39.065Z,36.15
2022-07-29T09:33:07.364Z,37.72
2022-07-29T09:36:12.433Z,37.10
2022-07-29T09:39:17.809Z,35.08
2022-07-29T09:42:34.842Z,35.06
2022-07-29T09:45:38.895Z,35.89
2022-07-29T09:48:42.062Z,35.69
2022-07-29T09:51:46.146Z,36.52
2022-07-29T09:54:48.800Z,37.28
2022-07-29T09:57:51.777Z,37.29
2022-07-29T10:00:57.660Z,36.96
2022-07-29T10:04:05.026Z,37.69
2022-07-29T10:07:16.911Z,36.48
2022-07-29T10:10:28.232Z,37.11
2022-07-29T10:13:30.903Z,36.01
2022-07-29T10:16:34.409Z,36.37
2022-07-29T10:19:39.127Z,37.73
2022-07-29T10:22:53.105Z,38.03
2022-07-29T10:25:56.982Z,36.57
2022-07-29T10:29:00.943Z,36.33
2022-07-29T10:32:29.507Z,36.73
2022-07-29T10:35:44.210Z,35.99
2022-07-29T10:39:11.212Z,38.24
2022-07-29T10:42:33.321Z,38.15
2022-07-29T10:45:39.496Z,37.06
2022-07-29T10:49:08.542Z,35.29
2022-07-29T10:52:12.594Z,35.40
2022-07-29T10:55:35.958Z,36.26
2022-07-29T10:58:39.114Z,36.15
2022-07-29T11:01:53.583Z,34.71
2022-07-29T11:04:57.604Z,35.17
2022-07-29T11:08:21.057Z,36.41
2022-07-29T11:11:30.392Z,36.93
2022-07-29T11:14:57.387Z,37.20
2022-07-29T11:18:04.380Z,37.59
2022-07-29T11:22:05.167Z,37.87
2022-07-29T11:25:50.143Z,37.97
2022-07-29T11:28:55.715Z,36.51
2022-07-29T11:32:15.786Z,36.92
2022-07-29T11:35:37.608Z,36.65
2022-07-29T11:38:42.670Z,36.87
2022-07-29T11:41:55.233Z,37.09
2022-07-29T11:45:44.361Z,36.99
2022-07-29T11:48:43.994Z,36.03
2022-07-29T11:51:53.799Z,34.34
2022-07-29T11:55:09.955Z,36.15
2022-07-29T11:58:13.224Z,35.45
2022-07-29T12:01:18.638Z,34.95
2022-07-29T12:04:22.724Z,35.01
2022-07-29T12:07:35.346Z,36.01
2022-07-29T12:10:39.086Z,35.81
2022-07-29T12:13:41.768Z,35.58
2022-07-29T12:16:44.722Z,35.58
2022-07-29T12:19:48.131Z,35.45
2022-07-29T12:22:57.441Z,35.48
2022-07-29T12:26:01.907Z,35.15
2022-07-29T12:29:11.258Z,34.56
2022-07-29T12:32:19.635Z,34.05
2022-07-29T12:35:23.425Z,34.14
2022-07-29T12:38:27.129Z,34.55
2022-07-29T12:41:33.103Z,34.79
2022-07-29T12:44:50.106Z,34.70
2022-07-29T12:47:53.567Z,34.01
2022-07-29T12:51:04.025Z,34.16
2022-07-29T12:54:16.275Z,33.92
2022-07-29T12:57:20.354Z,34.32
2022-07-29T13:00:26.302Z,34.00
2022-07-29T13:03:30.216Z,33.83
2022-07-29T13:06:41.994Z,33.66
2022-07-29T13:09:49.538Z,34.07
2022-07-29T13:13:13.624Z,34.20
2022-07-29T13:16:17.172Z,34.08
2022-07-29T13:19:33.192Z,34.17
2022-07-29T13:22:36.817Z,33.56
2022-07-29T13:25:41.871Z,33.52
2022-07-29T13:28:45.162Z,33.79
2022-07-29T13:31:56.556Z,34.14
2022-07-29T13:35:05.414Z,33.82
2022-07-29T13:38:11.184Z,34.13
2022-07-29T13:41:14.167Z,34.28
2022-07-29T13:44:17.284Z,33.81
2022-07-29T13:47:21.230Z,33.20
2022-07-29T13:50:24.438Z,33.15
2022-07-29T13:53:27.364Z,33.28
2022-07-29T13:56:32.373Z,33.75
2022-07-29T13:59:40.243Z,33.67
2022-07-29T14:02:47.107Z,33.87
2022-07-29T14:10:57.769Z,33.40
2022-07-29T14:14:03.125Z,33.51
2022-07-29T14:17:07.682Z,33.51
2022-07-29T14:20:16.999Z,33.68
2022-07-29T14:23:26.266Z,34.05
2022-07-29T14:30:34.466Z,34.11
2022-07-29T14:33:46.256Z,33.34
2022-07-29T14:36:57.730Z,33.79
2022-07-29T14:41:03.814Z,33.45
2022-07-29T14:44:12.208Z,33.52
2022-07-29T14:47:17.153Z,33.14
2022-07-29T14:50:31.136Z,33.34
2022-07-29T14:53:35.051Z,33.22
2022-07-29T14:57:17.591Z,33.36
2022-07-29T15:00:23.696Z,33.49
2022-07-29T15:03:33.966Z,33.28
2022-07-29T15:06:37.401Z,33.41
2022-07-29T15:09:49.666Z,33.34
2022-07-29T15:12:54.448Z,33.21
2022-07-29T15:16:00.287Z,33.22
2022-07-29T15:19:05.685Z,33.36
2022-07-29T15:22:08.293Z,33.06
2022-07-29T15:25:13.399Z,32.98
2022-07-29T15:28:41.375Z,33.10
2022-07-29T15:31:46.152Z,33.41
2022-07-29T15:34:54.083Z,33.47
2022-07-29T15:37:59.797Z,33.17
2022-07-29T15:41:03.512Z,32.97
2022-07-29T15:44:06.407Z,33.16
2022-07-29T15:47:12.218Z,33.09
2022-07-29T15:54:19.708Z,33.05
2022-07-29T15:57:27.150Z,32.67
2022-07-29T16:00:29.925Z,32.84
2022-07-29T16:03:53.191Z,33.07
2022-07-29T16:07:01.673Z,32.97
2022-07-29T16:10:08.687Z,32.87
2022-07-29T16:13:11.313Z,32.91
2022-07-29T16:16:24.827Z,32.88
2022-07-29T16:19:27.506Z,32.74
2022-07-29T16:22:33.760Z,32.75
2022-07-29T16:25:58.648Z,32.70
2022-07-29T16:29:00.225Z,32.78
2022-07-29T16:32:03.934Z,32.99
2022-07-29T16:35:07.855Z,32.73
2022-07-29T16:38:10.764Z,32.66
2022-07-29T16:41:13.887Z,32.72
2022-07-29T16:44:25.126Z,32.64
2022-07-29T16:48:05.151Z,32.38
2022-07-29T16:51:09.407Z,32.58
2022-07-29T16:54:14.038Z,32.53
2022-07-29T16:57:17.824Z,32.40
2022-07-29T17:20:01.701Z,32.27
2022-07-29T17:23:04.564Z,32.29
2022-07-29T17:26:07.533Z,32.18
2022-07-29T17:29:11.581Z,32.19
2022-07-29T17:32:38.503Z,32.13
2022-07-29T17:35:59.944Z,32.04
2022-07-29T17:39:06.560Z,31.92
2022-07-29T17:42:11.195Z,31.84
2022-07-29T17:45:14.683Z,31.82
2022-07-29T17:48:19.988Z,31.78
2022-07-29T17:51:25.407Z,31.70
2022-07-29T17:54:31.840Z,31.68
2022-07-29T17:57:35.489Z,31.62
2022-07-29T18:00:38.799Z,31.57
2022-07-29T18:03:42.831Z,31.52
2022-07-29T18:06:46.270Z,31.36
2022-07-29T18:10:17.895Z,31.27
2022-07-29T18:13:20.651Z,31.15
2022-07-29T18:16:48.879Z,31.08
2022-07-29T18:19:52.921Z,31.00
2022-07-29T18:22:55.928Z,30.85
2022-07-29T18:25:58.913Z,30.73
2022-07-29T18:29:01.811Z,30.74
2022-07-29T18:32:04.816Z,30.63
2022-07-29T18:35:08.713Z,30.57
2022-07-29T18:38:11.880Z,30.52
2022-07-29T18:41:14.867Z,30.37
2022-07-29T18:44:21.955Z,30.35
2022-07-29T19:05:20.416Z,30.46
2022-07-29T19:08:26.302Z,30.53
2022-07-29T19:11:29.439Z,30.49
2022-07-29T19:14:32.863Z,30.41
2022-07-29T19:17:35.384Z,30.31
2022-07-29T19:20:42.162Z,30.24
2022-07-29T19:55:19.600Z,29.03
2022-07-29T19:58:27.017Z,29.02
2022-07-29T20:01:29.936Z,28.87
2022-07-29T21:02:36.567Z,27.66
2022-07-29T21:05:44.810Z,27.57
2022-07-29T21:08:51.826Z,27.44
2022-07-29T21:16:52.079Z,27.26
2022-07-29T21:20:25.114Z,27.14
